createdAt,value
2023-04-15T00:00:35.157Z,97169.75
2023-04-15T00:03:08.938Z,97165.31
2023-04-15T00:05:42.093Z,97170.63
2023-04-15T00:18:16.810Z,97166.25
2023-04-15T00:20:56.820Z,97162.88
2023-04-15T00:23:30.384Z,97159.50
2023-04-15T00:26:04.429Z,97153.47
2023-04-15T00:28:38.021Z,97157.81
2023-04-15T00:31:11.844Z,97141.91
2023-04-15T00:44:24.818Z,97153.34
2023-04-15T00:47:00.409Z,97152.50
2023-04-15T00:49:35.797Z,97141.91
2023-04-15T00:52:09.352Z,97138.38
2023-04-15T00:54:42.804Z,97141.91
2023-04-15T00:57:16.047Z,97131.28
2023-04-15T00:59:58.804Z,97130.31
2023-04-15T01:13:09.796Z,97122.47
2023-04-15T01:15:45.429Z,97129.59
2023-04-15T01:18:20.828Z,97124.28
2023-04-15T01:20:54.303Z,97126.94
2023-04-15T01:23:30.814Z,97120.06
2023-04-15T01:26:07.757Z,97112.22
2023-04-15T01:39:03.783Z,97108.00
2023-04-15T01:41:45.787Z,97102.69
2023-04-15T01:44:24.824Z,97105.22
2023-04-15T01:47:04.854Z,97105.34
2023-04-15T01:49:38.052Z,97115.09
2023-04-15T02:05:53.801Z,97094.84
2023-04-15T02:08:28.743Z,97088.69
2023-04-15T02:11:02.796Z,97086.88
2023-04-15T02:13:36.127Z,97084.22
2023-04-15T02:16:10.841Z,97087.84
2023-04-15T02:18:45.232Z,97085.19
2023-04-15T02:21:20.794Z,97089.53
2023-04-15T02:31:15.779Z,97093.41
2023-04-15T02:33:56.429Z,97094.22
2023-04-15T02:36:32.029Z,97093.41
2023-04-15T02:39:05.846Z,97088.09
2023-04-15T02:41:39.041Z,97081.81
2023-04-15T02:44:12.805Z,97093.41
2023-04-15T02:58:02.796Z,97074.97
2023-04-15T03:00:36.166Z,97076.75
2023-04-15T03:03:13.077Z,97081.09
2023-04-15T03:05:47.182Z,97082.06
2023-04-15T03:08:20.803Z,97085.56
2023-04-15T03:10:58.461Z,97079.41
2023-04-15T03:24:39.772Z,97079.31
2023-04-15T03:27:21.802Z,97086.41
2023-04-15T03:29:59.374Z,97080.25
2023-04-15T03:32:40.840Z,97084.72
2023-04-15T03:35:14.065Z,97104.22
2023-04-15T03:37:48.409Z,97109.53
2023-04-15T03:40:22.328Z,97116.53
2023-04-15T03:53:12.776Z,97113.06
2023-04-15T03:55:52.798Z,97104.22
2023-04-15T03:58:26.184Z,97108.72
2023-04-15T04:00:59.798Z,97109.53
2023-04-15T04:03:33.188Z,97103.41
2023-04-15T04:06:06.807Z,97102.56
2023-04-15T04:19:18.801Z,97114.16
2023-04-15T04:21:52.384Z,97116.06
2023-04-15T04:24:25.788Z,97122.31
2023-04-15T04:26:59.012Z,97122.31
2023-04-15T04:29:32.775Z,97123.19
2023-04-15T04:46:09.832Z,97137.16
2023-04-15T04:48:49.766Z,97136.19
2023-04-15T04:51:23.061Z,97135.38
2023-04-15T04:53:56.785Z,97141.63
2023-04-15T04:56:30.026Z,97152.13
2023-04-15T04:59:03.828Z,97138.03
2023-04-15T05:12:15.792Z,97156.47
2023-04-15T05:14:49.173Z,97160.94
2023-04-15T05:17:22.882Z,97157.31
2023-04-15T05:19:56.029Z,97162.59
2023-04-15T05:22:29.768Z,97167.91
2023-04-15T05:25:03.857Z,97174.06
2023-04-15T05:38:32.776Z,97179.25
2023-04-15T05:41:12.771Z,97194.22
2023-04-15T05:43:46.052Z,97185.31
2023-04-15T05:46:20.418Z,97196.75
2023-04-15T05:48:58.091Z,97195.91
2023-04-15T05:51:31.777Z,97200.34
2023-04-15T05:54:06.973Z,97201.22
2023-04-15T06:06:39.750Z,97221.22
2023-04-15T06:09:21.790Z,97215.91
2023-04-15T06:11:55.088Z,97213.38
2023-04-15T06:14:28.760Z,97214.47
2023-04-15T06:17:02.357Z,97224.22
2023-04-15T06:19:35.771Z,97227.00
2023-04-15T06:32:47.848Z,97241.47
2023-04-15T06:35:21.297Z,97245.06
2023-04-15T06:37:54.804Z,97241.47
2023-04-15T06:40:28.254Z,97246.97
2023-04-15T06:43:01.837Z,97247.84
2023-04-15T06:45:35.151Z,97254.94
2023-04-15T06:58:49.738Z,97262.16
2023-04-15T07:01:29.868Z,97265.66
2023-04-15T07:04:03.081Z,97274.59
2023-04-15T07:06:36.755Z,97267.47
2023-04-15T07:09:10.154Z,97275.41
2023-04-15T07:11:44.004Z,97266.75
2023-04-15T07:14:19.003Z,97265.06
2023-04-15T07:27:07.727Z,97286.03
2023-04-15T07:29:49.765Z,97284.25
2023-04-15T07:32:23.022Z,97291.13
2023-04-15T07:34:56.774Z,97294.59
2023-04-15T07:37:30.064Z,97303.31
2023-04-15T07:40:03.753Z,97302.47
2023-04-15T07:53:16.380Z,97308.91
2023-04-15T07:55:49.988Z,97311.56
2023-04-15T07:58:23.758Z,97312.38
2023-04-15T08:01:02.203Z,97325.44
2023-04-15T08:03:43.049Z,97336.88
2023-04-15T08:06:17.021Z,97337.72
2023-04-15T08:19:08.724Z,97352.59
2023-04-15T08:21:48.765Z,97348.13
2023-04-15T08:24:22.089Z,97353.41
2023-04-15T08:26:55.764Z,97345.34
2023-04-15T08:29:29.008Z,97348.94
2023-04-15T08:32:02.741Z,97360.44
2023-04-15T08:34:38.057Z,97355.00
2023-04-15T08:47:28.769Z,97375.16
2023-04-15T08:50:12.741Z,97372.50
2023-04-15T08:52:46.085Z,97381.19
2023-04-15T08:55:21.373Z,97383.72
2023-04-15T08:57:55.953Z,97376.41
2023-04-15T09:00:29.761Z,97376.91
2023-04-15T09:13:41.757Z,97375.50
2023-04-15T09:16:15.062Z,97384.22
2023-04-15T09:18:48.760Z,97391.94
2023-04-15T09:21:22.151Z,97387.38
2023-04-15T09:24:04.894Z,97396.06
2023-04-15T09:26:38.331Z,97387.13
2023-04-15T09:39:28.729Z,97400.78
2023-04-15T09:42:13.740Z,97412.22
2023-04-15T09:44:47.007Z,97413.91
2023-04-15T09:47:34.770Z,97420.06
2023-04-15T09:50:09.246Z,97426.47
2023-04-15T09:52:48.748Z,97429.84
2023-04-15T09:55:24.211Z,97423.59
2023-04-15T10:08:12.719Z,97438.78
2023-04-15T10:10:55.851Z,97438.91
2023-04-15T10:13:31.485Z,97444.34
2023-04-15T10:16:09.771Z,97437.31
2023-04-15T10:18:45.259Z,97439.22
2023-04-15T10:21:19.742Z,97441.16
2023-04-15T10:34:33.754Z,97454.53
2023-04-15T10:37:10.189Z,97459.00
2023-04-15T10:39:50.762Z,97457.06
2023-04-15T10:42:33.604Z,97457.94
2023-04-15T10:45:23.752Z,97465.78
2023-04-15T11:01:28.727Z,97472.34
2023-04-15T11:04:09.093Z,97470.44
2023-04-15T11:06:44.795Z,97476.44
2023-04-15T11:09:38.748Z,97475.28
2023-04-15T11:12:13.627Z,97484.63
2023-04-15T11:14:47.725Z,97476.31
2023-04-15T11:28:00.736Z,97494.47
2023-04-15T11:30:37.292Z,97501.38
2023-04-15T11:33:18.858Z,97494.97
2023-04-15T11:35:53.664Z,97497.19
2023-04-15T11:38:26.736Z,97503.97
2023-04-15T11:41:00.633Z,97503.59
2023-04-15T11:53:53.702Z,97514.66
2023-04-15T11:56:33.743Z,97507.41
2023-04-15T11:59:06.948Z,97511.66
2023-04-15T12:01:41.745Z,97515.88
2023-04-15T12:04:17.275Z,97516.63
2023-04-15T12:19:50.718Z,97530.91
2023-04-15T12:22:23.974Z,97538.75
2023-04-15T12:25:01.734Z,97538.75
2023-04-15T12:27:35.044Z,97541.06
2023-04-15T12:30:12.736Z,97543.38
2023-04-15T12:32:46.407Z,97545.66
2023-04-15T12:35:21.742Z,97546.19
2023-04-15T12:48:31.742Z,97545.22
2023-04-15T12:51:07.032Z,97548.34
2023-04-15T12:53:40.749Z,97547.63
2023-04-15T12:56:13.981Z,97564.81
2023-04-15T12:58:47.725Z,97565.19
2023-04-15T13:01:21.093Z,97564.09
2023-04-15T13:14:14.709Z,97564.84
2023-04-15T13:16:54.734Z,97574.25
2023-04-15T13:19:27.958Z,97583.09
2023-04-15T13:22:01.794Z,97578.63
2023-04-15T13:24:35.047Z,97578.63
2023-04-15T13:40:50.741Z,97598.59
2023-04-15T13:43:23.999Z,97598.72
2023-04-15T13:45:57.776Z,97609.38
2023-04-15T13:48:31.036Z,97604.06
2023-04-15T13:51:04.717Z,97612.78
2023-04-15T13:53:39.575Z,97600.16
2023-04-15T13:56:15.721Z,97603.56
2023-04-15T14:06:45.708Z,97603.41
2023-04-15T14:09:26.450Z,97615.63
2023-04-15T14:12:03.867Z,97618.31
2023-04-15T14:14:38.334Z,97622.66
2023-04-15T14:17:12.368Z,97619.31
2023-04-15T14:19:45.746Z,97620.41
2023-04-15T14:33:35.756Z,97649.31
2023-04-15T14:36:10.159Z,97654.66
2023-04-15T14:38:43.730Z,97645.91
2023-04-15T14:41:16.953Z,97661.19
2023-04-15T14:43:50.736Z,97659.38
2023-04-15T14:46:25.022Z,97665.78
2023-04-15T15:02:41.767Z,97665.31
2023-04-15T15:05:15.328Z,97676.06
2023-04-15T15:07:48.717Z,97673.50
2023-04-15T15:10:34.792Z,97678.84
2023-04-15T15:13:21.717Z,97679.84
2023-04-15T15:15:55.165Z,97671.84
2023-04-15T15:28:45.692Z,97701.84
2023-04-15T15:31:25.756Z,97708.88
2023-04-15T15:33:58.962Z,97708.13
2023-04-15T15:36:32.735Z,97719.53
2023-04-15T15:39:06.303Z,97710.78
2023-04-15T15:41:39.712Z,97725.81
2023-04-15T15:54:51.708Z,97735.97
2023-04-15T15:57:24.944Z,97735.09
2023-04-15T16:00:10.290Z,97743.19
2023-04-15T16:05:28.718Z,97745.13
2023-04-15T16:08:01.978Z,97751.44
2023-04-15T16:10:37.723Z,97744.53
2023-04-15T16:20:37.699Z,97751.28
2023-04-15T16:23:22.977Z,97756.09
2023-04-15T16:25:57.928Z,97756.22
2023-04-15T16:28:31.742Z,97760.56
2023-04-15T16:31:05.351Z,97768.66
2023-04-15T16:33:38.708Z,97762.50
2023-04-15T16:36:12.087Z,97764.44
2023-04-15T16:49:02.836Z,97777.25
2023-04-15T16:51:58.739Z,97785.44
2023-04-15T16:54:31.969Z,97787.38
2023-04-15T16:57:05.712Z,97786.53
2023-04-15T16:59:38.973Z,97789.19
2023-04-15T17:15:55.773Z,97812.00
2023-04-15T17:18:29.305Z,97806.94
2023-04-15T17:21:02.742Z,97811.50
2023-04-15T17:23:36.041Z,97813.41
2023-04-15T17:26:10.512Z,97817.91
2023-04-15T17:28:44.301Z,97823.34
2023-04-15T17:31:19.770Z,97826.97
2023-04-15T17:41:04.696Z,97832.50
2023-04-15T17:43:44.715Z,97823.78
2023-04-15T17:46:20.927Z,97825.69
2023-04-15T17:48:54.725Z,97829.56
2023-04-15T17:51:27.967Z,97838.50
2023-04-15T17:54:12.741Z,97838.63
2023-04-15T17:56:46.002Z,97837.88
2023-04-15T18:09:36.687Z,97858.75
2023-04-15T18:12:16.880Z,97854.47
2023-04-15T18:14:49.937Z,97867.88
2023-04-15T18:17:23.740Z,97876.09
2023-04-15T18:19:57.057Z,97882.38
2023-04-15T18:36:12.700Z,97908.13
2023-04-15T18:38:46.287Z,97916.22
2023-04-15T18:41:19.706Z,97918.97
2023-04-15T18:43:53.475Z,97914.63
2023-04-15T18:46:26.737Z,97927.03
2023-04-15T18:49:05.336Z,97923.66
2023-04-15T18:51:40.743Z,97929.06
2023-04-15T19:01:25.688Z,97928.53
2023-04-15T19:04:05.781Z,97933.13
2023-04-15T19:06:40.956Z,97939.41
2023-04-15T19:09:14.698Z,97946.63
2023-04-15T19:11:48.052Z,97952.88
2023-04-15T19:14:22.740Z,97953.84
2023-04-15T19:16:56.057Z,97957.47
2023-04-15T19:29:46.670Z,97970.13
2023-04-15T19:32:26.986Z,97975.50
2023-04-15T19:34:59.953Z,97982.75
2023-04-15T19:37:33.729Z,97989.88
2023-04-15T19:40:08.939Z,97979.34
2023-04-15T19:56:24.713Z,98000.06
2023-04-15T19:58:57.962Z,98002.72
2023-04-15T20:01:31.716Z,97990.38
2023-04-15T20:04:05.413Z,97999.31
2023-04-15T20:06:38.701Z,97996.75
2023-04-15T20:09:12.254Z,97997.59
2023-04-15T20:12:09.714Z,98009.22
2023-04-15T20:21:59.694Z,98005.25
2023-04-15T20:24:39.717Z,98011.50
2023-04-15T20:27:14.964Z,98017.78
2023-04-15T20:29:48.763Z,98017.78
2023-04-15T20:32:21.992Z,98020.53
2023-04-15T20:34:56.501Z,98025.00
2023-04-15T20:48:08.756Z,98032.41
2023-04-15T20:50:41.943Z,98035.19
2023-04-15T20:53:15.705Z,98041.31
2023-04-15T20:55:49.064Z,98042.28
2023-04-15T20:58:22.688Z,98039.63
2023-04-15T21:00:56.024Z,98045.91
2023-04-15T21:17:11.725Z,98051.47
2023-04-15T21:19:44.929Z,98055.09
2023-04-15T21:22:18.728Z,98051.59
2023-04-15T21:24:52.070Z,98060.41
2023-04-15T21:27:25.726Z,98068.47
2023-04-15T21:29:59.064Z,98065.06
2023-04-15T21:42:11.705Z,98079.50
2023-04-15T21:44:51.681Z,98089.25
2023-04-15T21:47:25.064Z,98094.66
2023-04-15T21:49:58.712Z,98097.31
2023-04-15T21:52:31.907Z,98092.00
2023-04-15T21:55:05.696Z,98090.28
2023-04-15T22:08:22.697Z,98106.44
2023-04-15T22:10:55.952Z,98106.44
2023-04-15T22:13:29.697Z,98109.19
2023-04-15T22:16:03.055Z,98114.59
2023-04-15T22:18:36.685Z,98116.41
2023-04-15T22:21:10.139Z,98115.63
2023-04-15T22:37:25.691Z,98127.31
2023-04-15T22:39:59.063Z,98128.19
2023-04-15T22:42:33.732Z,98133.56
2023-04-15T22:45:08.905Z,98138.97
2023-04-15T22:47:42.703Z,98139.91
2023-04-15T22:50:15.950Z,98137.38
2023-04-15T23:03:06.832Z,98142.13
2023-04-15T23:05:47.696Z,98146.66
2023-04-15T23:08:20.936Z,98148.53
2023-04-15T23:10:54.691Z,98150.47
2023-04-15T23:13:28.050Z,98149.59
2023-04-15T23:16:01.750Z,98148.75
2023-04-15T23:29:13.665Z,98158.03
2023-04-15T23:31:46.947Z,98154.63
2023-04-15T23:34:20.687Z,98153.88
2023-04-15T23:36:53.924Z,98161.94
2023-04-15T23:39:27.683Z,98162.94
2023-04-15T23:42:00.956Z,98167.53
2023-04-15T23:55:21.653Z,98175.75
2023-04-15T23:58:01.703Z,98181.16
